Portada
METAR-TAF:

METAR-TAF

Aeroports :

Kupang, Indonèsia

latitud: 10-10-17S, longitud: 123-40-16E, altitud: 102 m

Observació

L'informe es va fer fa 30 minuts, a les 09:00 UTC
Vent 4 kt del Sud
Temperatura 25°C
Humitat 94%
Pressió 1009 hPa
Visibilitat: 8000 m
Núvols disperses a una alçada de 1400 ft
Cel cobert a una alçada de 8000 ft
pluja

METAR: WATT 010900Z 18004KT 8000 -RA SCT014 OVC080 25/24 Q1009 TEMPO RA

Hora: 16:30 (09:30 UTC)

Pronòstic

L'informe es va fer fa 4 hores i 30 minuts, a les 05:00 UTC
Pronòstic vàlid del 01 a les 06 UTC al 02 a les 06 UTC
Vent 8 kt del Oest
Visibilitat: 8000 m
Cel ennuvolat a una alçada de 1500 ft
Temporalment
l' 01 a les 05 UTC al 01 a les 09 UTC
Visibilitat: 4000 m
pluja

TAF: WATT 010500Z 0106/0206 26008KT 8000 BKN015 TEMPO 0105/0109 4000 RA

Observacions i pronòstics meteorològics de més de 4000 aeroports (METAR i TAF).

Les estacions disponibles són els punts grocs i vermells al mapa.

Posi el ratolí al punt desitjat per veure el nom de l'estació.

Feu clic per veure les observacions i els pronòstics meteorològics.

Per canviar el mapa: feu clic els botons verds amb una creu de color negre per apropar; al botó verd amb un guió per allunyar la imatge; o en les fletxes verdes per a mapes adjacents.


METAR-TAF: